sensor_id;sensor_type;location;lat;lon;timestamp;P1;durP1;ratioP1;P2;durP2;ratioP2
16159;SDS011;8185;57.818;15.224;2023-10-31T00:01:19;6.90;;;2.07;;
16159;SDS011;8185;57.818;15.224;2023-10-31T00:03:47;4.87;;;2.23;;
16159;SDS011;8185;57.818;15.224;2023-10-31T00:06:15;7.33;;;1.83;;
16159;SDS011;8185;57.818;15.224;2023-10-31T00:08:43;9.80;;;2.17;;
16159;SDS011;8185;57.818;15.224;2023-10-31T00:11:10;8.90;;;2.23;;
16159;SDS011;8185;57.818;15.224;2023-10-31T00:13:38;11.63;;;3.37;;
16159;SDS011;8185;57.818;15.224;2023-10-31T00:16:05;7.67;;;2.97;;
16159;SDS011;8185;57.818;15.224;2023-10-31T00:18:33;7.60;;;2.20;;
16159;SDS011;8185;57.818;15.224;2023-10-31T00:21:00;8.10;;;2.20;;
16159;SDS011;8185;57.818;15.224;2023-10-31T00:23:29;4.63;;;2.33;;
16159;SDS011;8185;57.818;15.224;2023-10-31T00:25:56;6.07;;;1.97;;
16159;SDS011;8185;57.818;15.224;2023-10-31T00:28:23;6.10;;;2.40;;
16159;SDS011;8185;57.818;15.224;2023-10-31T00:30:50;6.40;;;2.00;;
16159;SDS011;8185;57.818;15.224;2023-10-31T00:33:17;7.13;;;1.97;;
16159;SDS011;8185;57.818;15.224;2023-10-31T00:35:45;10.17;;;2.17;;
16159;SDS011;8185;57.818;15.224;2023-10-31T00:38:12;8.20;;;2.17;;
16159;SDS011;8185;57.818;15.224;2023-10-31T00:40:40;5.47;;;1.90;;
16159;SDS011;8185;57.818;15.224;2023-10-31T00:43:08;6.83;;;2.50;;
16159;SDS011;8185;57.818;15.224;2023-10-31T00:45:35;8.03;;;2.20;;
16159;SDS011;8185;57.818;15.224;2023-10-31T00:48:02;9.17;;;2.40;;
16159;SDS011;8185;57.818;15.224;2023-10-31T00:50:29;6.97;;;2.40;;
16159;SDS011;8185;57.818;15.224;2023-10-31T00:52:56;8.47;;;2.03;;
16159;SDS011;8185;57.818;15.224;2023-10-31T00:55:24;8.33;;;2.53;;
16159;SDS011;8185;57.818;15.224;2023-10-31T00:57:52;8.97;;;2.23;;
16159;SDS011;8185;57.818;15.224;2023-10-31T01:00:19;7.37;;;2.30;;
16159;SDS011;8185;57.818;15.224;2023-10-31T01:02:47;5.93;;;2.23;;
16159;SDS011;8185;57.818;15.224;2023-10-31T01:05:14;3.90;;;2.47;;
16159;SDS011;8185;57.818;15.224;2023-10-31T01:07:41;7.77;;;2.53;;
16159;SDS011;8185;57.818;15.224;2023-10-31T01:10:08;6.03;;;2.60;;
16159;SDS011;8185;57.818;15.224;2023-10-31T01:12:36;6.30;;;2.10;;
16159;SDS011;8185;57.818;15.224;2023-10-31T01:15:05;5.47;;;1.63;;
16159;SDS011;8185;57.818;15.224;2023-10-31T01:17:33;10.33;;;3.00;;
16159;SDS011;8185;57.818;15.224;2023-10-31T01:20:00;5.60;;;2.23;;
16159;SDS011;8185;57.818;15.224;2023-10-31T01:22:27;7.43;;;2.03;;
16159;SDS011;8185;57.818;15.224;2023-10-31T01:24:54;7.83;;;2.07;;
16159;SDS011;8185;57.818;15.224;2023-10-31T01:27:21;9.40;;;2.80;;
16159;SDS011;8185;57.818;15.224;2023-10-31T01:29:49;9.80;;;2.27;;
16159;SDS011;8185;57.818;15.224;2023-10-31T01:32:17;11.87;;;3.07;;
16159;SDS011;8185;57.818;15.224;2023-10-31T01:34:44;7.77;;;2.90;;
16159;SDS011;8185;57.818;15.224;2023-10-31T01:37:11;8.87;;;2.40;;
16159;SDS011;8185;57.818;15.224;2023-10-31T01:39:39;7.40;;;1.97;;
16159;SDS011;8185;57.818;15.224;2023-10-31T01:42:06;8.47;;;2.33;;
16159;SDS011;8185;57.818;15.224;2023-10-31T01:44:34;8.27;;;2.40;;
16159;SDS011;8185;57.818;15.224;2023-10-31T01:47:01;9.53;;;2.50;;
16159;SDS011;8185;57.818;15.224;2023-10-31T01:49:30;7.77;;;2.93;;
16159;SDS011;8185;57.818;15.224;2023-10-31T01:51:58;15.67;;;3.20;;
16159;SDS011;8185;57.818;15.224;2023-10-31T01:54:27;7.50;;;2.67;;
16159;SDS011;8185;57.818;15.224;2023-10-31T01:56:54;8.73;;;4.70;;
16159;SDS011;8185;57.818;15.224;2023-10-31T01:59:23;10.60;;;2.50;;
16159;SDS011;8185;57.818;15.224;2023-10-31T02:01:51;9.00;;;2.70;;
16159;SDS011;8185;57.818;15.224;2023-10-31T02:04:18;10.10;;;3.50;;
16159;SDS011;8185;57.818;15.224;2023-10-31T02:06:47;11.50;;;3.50;;
16159;SDS011;8185;57.818;15.224;2023-10-31T02:09:14;5.17;;;2.50;;
16159;SDS011;8185;57.818;15.224;2023-10-31T02:11:41;3.50;;;2.17;;
16159;SDS011;8185;57.818;15.224;2023-10-31T02:14:09;10.27;;;2.20;;
16159;SDS011;8185;57.818;15.224;2023-10-31T02:16:36;6.37;;;2.40;;
16159;SDS011;8185;57.818;15.224;2023-10-31T02:19:03;9.73;;;2.40;;
16159;SDS011;8185;57.818;15.224;2023-10-31T02:21:32;4.70;;;2.37;;
16159;SDS011;8185;57.818;15.224;2023-10-31T02:24:02;15.90;;;3.53;;
16159;SDS011;8185;57.818;15.224;2023-10-31T02:26:29;12.20;;;2.17;;
16159;SDS011;8185;57.818;15.224;2023-10-31T02:28:57;6.30;;;3.30;;
16159;SDS011;8185;57.818;15.224;2023-10-31T02:31:25;10.17;;;3.50;;
16159;SDS011;8185;57.818;15.224;2023-10-31T02:33:53;9.87;;;3.10;;
16159;SDS011;8185;57.818;15.224;2023-10-31T02:36:20;11.23;;;2.93;;
16159;SDS011;8185;57.818;15.224;2023-10-31T02:38:48;11.07;;;2.50;;
16159;SDS011;8185;57.818;15.224;2023-10-31T02:41:17;9.13;;;2.90;;
16159;SDS011;8185;57.818;15.224;2023-10-31T02:43:44;9.23;;;3.07;;
16159;SDS011;8185;57.818;15.224;2023-10-31T02:46:11;7.47;;;2.63;;
16159;SDS011;8185;57.818;15.224;2023-10-31T02:48:40;9.07;;;2.80;;
16159;SDS011;8185;57.818;15.224;2023-10-31T02:51:07;9.87;;;3.00;;
16159;SDS011;8185;57.818;15.224;2023-10-31T02:53:34;8.13;;;3.23;;
16159;SDS011;8185;57.818;15.224;2023-10-31T02:56:02;8.63;;;3.60;;
16159;SDS011;8185;57.818;15.224;2023-10-31T02:58:31;12.27;;;2.97;;
16159;SDS011;8185;57.818;15.224;2023-10-31T03:00:58;10.77;;;3.20;;
16159;SDS011;8185;57.818;15.224;2023-10-31T03:03:25;7.70;;;3.40;;
16159;SDS011;8185;57.818;15.224;2023-10-31T03:05:52;12.20;;;3.73;;
16159;SDS011;8185;57.818;15.224;2023-10-31T03:08:20;11.87;;;3.47;;
16159;SDS011;8185;57.818;15.224;2023-10-31T03:10:47;13.73;;;3.70;;
16159;SDS011;8185;57.818;15.224;2023-10-31T03:13:16;9.60;;;3.60;;
16159;SDS011;8185;57.818;15.224;2023-10-31T03:15:46;10.33;;;3.53;;
16159;SDS011;8185;57.818;15.224;2023-10-31T03:18:13;9.87;;;3.60;;
16159;SDS011;8185;57.818;15.224;2023-10-31T03:20:43;11.37;;;3.90;;
16159;SDS011;8185;57.818;15.224;2023-10-31T03:23:11;9.10;;;3.83;;
16159;SDS011;8185;57.818;15.224;2023-10-31T03:25:38;10.90;;;3.87;;
16159;SDS011;8185;57.818;15.224;2023-10-31T03:28:07;12.63;;;4.40;;
16159;SDS011;8185;57.818;15.224;2023-10-31T03:30:44;14.90;;;4.70;;
16159;SDS011;8185;57.818;15.224;2023-10-31T03:33:14;9.67;;;4.37;;
16159;SDS011;8185;57.818;15.224;2023-10-31T03:35:41;10.63;;;4.40;;
16159;SDS011;8185;57.818;15.224;2023-10-31T03:38:09;13.53;;;5.20;;
16159;SDS011;8185;57.818;15.224;2023-10-31T03:40:36;8.37;;;4.77;;
16159;SDS011;8185;57.818;15.224;2023-10-31T03:43:03;15.33;;;4.20;;
16159;SDS011;8185;57.818;15.224;2023-10-31T03:45:31;13.47;;;4.67;;
16159;SDS011;8185;57.818;15.224;2023-10-31T03:47:59;11.60;;;3.87;;
16159;SDS011;8185;57.818;15.224;2023-10-31T03:50:26;12.80;;;4.27;;
16159;SDS011;8185;57.818;15.224;2023-10-31T03:52:53;11.50;;;4.93;;
16159;SDS011;8185;57.818;15.224;2023-10-31T03:55:21;11.00;;;4.27;;
16159;SDS011;8185;57.818;15.224;2023-10-31T03:57:48;14.10;;;3.73;;
16159;SDS011;8185;57.818;15.224;2023-10-31T04:00:15;15.50;;;4.23;;
16159;SDS011;8185;57.818;15.224;2023-10-31T04:02:43;10.87;;;4.10;;
16159;SDS011;8185;57.818;15.224;2023-10-31T04:05:12;16.93;;;5.00;;
16159;SDS011;8185;57.818;15.224;2023-10-31T04:07:39;12.77;;;4.13;;
16159;SDS011;8185;57.818;15.224;2023-10-31T04:10:06;13.43;;;4.87;;
16159;SDS011;8185;57.818;15.224;2023-10-31T04:12:34;15.87;;;4.87;;
16159;SDS011;8185;57.818;15.224;2023-10-31T04:15:02;14.33;;;4.23;;
16159;SDS011;8185;57.818;15.224;2023-10-31T04:17:29;12.13;;;5.10;;
16159;SDS011;8185;57.818;15.224;2023-10-31T04:19:57;10.57;;;4.90;;
16159;SDS011;8185;57.818;15.224;2023-10-31T04:22:25;14.83;;;6.20;;
16159;SDS011;8185;57.818;15.224;2023-10-31T04:24:53;17.13;;;6.83;;
16159;SDS011;8185;57.818;15.224;2023-10-31T04:27:20;14.83;;;6.00;;
16159;SDS011;8185;57.818;15.224;2023-10-31T04:29:47;14.63;;;5.83;;
16159;SDS011;8185;57.818;15.224;2023-10-31T04:32:15;12.57;;;5.47;;
16159;SDS011;8185;57.818;15.224;2023-10-31T04:34:42;18.83;;;7.70;;
16159;SDS011;8185;57.818;15.224;2023-10-31T04:37:09;15.50;;;6.90;;
16159;SDS011;8185;57.818;15.224;2023-10-31T04:39:38;14.67;;;6.40;;
16159;SDS011;8185;57.818;15.224;2023-10-31T04:42:05;14.30;;;6.33;;
16159;SDS011;8185;57.818;15.224;2023-10-31T04:44:32;11.60;;;6.27;;
16159;SDS011;8185;57.818;15.224;2023-10-31T04:47:00;12.97;;;6.60;;
16159;SDS011;8185;57.818;15.224;2023-10-31T04:49:27;16.37;;;7.83;;
16159;SDS011;8185;57.818;15.224;2023-10-31T04:51:54;19.03;;;6.60;;
16159;SDS011;8185;57.818;15.224;2023-10-31T04:54:21;12.37;;;6.77;;
16159;SDS011;8185;57.818;15.224;2023-10-31T04:56:50;17.70;;;7.70;;
16159;SDS011;8185;57.818;15.224;2023-10-31T04:59:17;16.43;;;7.83;;
16159;SDS011;8185;57.818;15.224;2023-10-31T05:01:48;15.33;;;7.60;;
16159;SDS011;8185;57.818;15.224;2023-10-31T05:04:16;15.37;;;7.37;;
16159;SDS011;8185;57.818;15.224;2023-10-31T05:06:43;12.97;;;7.30;;
16159;SDS011;8185;57.818;15.224;2023-10-31T05:09:11;18.57;;;7.57;;
16159;SDS011;8185;57.818;15.224;2023-10-31T05:11:38;18.30;;;7.33;;
16159;SDS011;8185;57.818;15.224;2023-10-31T05:14:08;15.63;;;7.37;;
16159;SDS011;8185;57.818;15.224;2023-10-31T05:16:39;12.63;;;7.13;;
16159;SDS011;8185;57.818;15.224;2023-10-31T05:19:07;16.57;;;7.43;;
16159;SDS011;8185;57.818;15.224;2023-10-31T05:21:34;21.33;;;8.40;;
16159;SDS011;8185;57.818;15.224;2023-10-31T05:24:02;17.63;;;7.47;;
16159;SDS011;8185;57.818;15.224;2023-10-31T05:26:29;16.50;;;7.83;;
16159;SDS011;8185;57.818;15.224;2023-10-31T05:28:56;20.23;;;8.63;;
16159;SDS011;8185;57.818;15.224;2023-10-31T05:31:25;14.83;;;7.67;;
16159;SDS011;8185;57.818;15.224;2023-10-31T05:33:53;15.67;;;7.67;;
16159;SDS011;8185;57.818;15.224;2023-10-31T05:36:20;16.00;;;7.77;;
16159;SDS011;8185;57.818;15.224;2023-10-31T05:38:48;16.40;;;7.97;;
16159;SDS011;8185;57.818;15.224;2023-10-31T05:41:16;16.77;;;7.33;;
16159;SDS011;8185;57.818;15.224;2023-10-31T05:43:43;13.50;;;7.23;;
16159;SDS011;8185;57.818;15.224;2023-10-31T05:46:10;13.53;;;7.67;;
16159;SDS011;8185;57.818;15.224;2023-10-31T05:48:41;12.87;;;7.30;;
16159;SDS011;8185;57.818;15.224;2023-10-31T05:51:13;17.20;;;7.93;;
16159;SDS011;8185;57.818;15.224;2023-10-31T05:53:41;12.20;;;7.10;;
16159;SDS011;8185;57.818;15.224;2023-10-31T05:56:09;17.13;;;7.90;;
16159;SDS011;8185;57.818;15.224;2023-10-31T05:58:37;11.27;;;6.70;;
16159;SDS011;8185;57.818;15.224;2023-10-31T06:01:05;13.00;;;7.30;;
16159;SDS011;8185;57.818;15.224;2023-10-31T06:03:33;13.10;;;7.73;;
16159;SDS011;8185;57.818;15.224;2023-10-31T06:06:02;13.03;;;6.77;;
16159;SDS011;8185;57.818;15.224;2023-10-31T06:08:29;11.27;;;7.77;;
16159;SDS011;8185;57.818;15.224;2023-10-31T06:10:57;12.20;;;7.80;;
16159;SDS011;8185;57.818;15.224;2023-10-31T06:13:25;12.23;;;6.43;;
16159;SDS011;8185;57.818;15.224;2023-10-31T06:15:52;12.80;;;7.70;;
16159;SDS011;8185;57.818;15.224;2023-10-31T06:18:20;17.13;;;11.17;;
16159;SDS011;8185;57.818;15.224;2023-10-31T06:20:47;11.83;;;7.87;;
16159;SDS011;8185;57.818;15.224;2023-10-31T06:23:15;14.77;;;7.03;;
16159;SDS011;8185;57.818;15.224;2023-10-31T06:25:43;14.90;;;7.20;;
16159;SDS011;8185;57.818;15.224;2023-10-31T06:28:10;11.77;;;8.20;;
16159;SDS011;8185;57.818;15.224;2023-10-31T06:30:37;9.83;;;6.57;;
16159;SDS011;8185;57.818;15.224;2023-10-31T06:33:04;14.27;;;7.60;;
16159;SDS011;8185;57.818;15.224;2023-10-31T06:35:32;15.67;;;11.00;;
16159;SDS011;8185;57.818;15.224;2023-10-31T06:38:00;15.37;;;6.93;;
16159;SDS011;8185;57.818;15.224;2023-10-31T06:40:28;11.43;;;7.73;;
16159;SDS011;8185;57.818;15.224;2023-10-31T06:42:56;13.60;;;7.47;;
16159;SDS011;8185;57.818;15.224;2023-10-31T06:45:24;13.60;;;6.93;;
16159;SDS011;8185;57.818;15.224;2023-10-31T06:47:51;11.17;;;6.70;;
16159;SDS011;8185;57.818;15.224;2023-10-31T06:50:18;12.37;;;6.53;;
16159;SDS011;8185;57.818;15.224;2023-10-31T06:52:45;12.83;;;6.37;;
16159;SDS011;8185;57.818;15.224;2023-10-31T06:55:13;11.63;;;6.20;;
16159;SDS011;8185;57.818;15.224;2023-10-31T06:57:41;15.90;;;6.80;;
16159;SDS011;8185;57.818;15.224;2023-10-31T07:00:10;10.10;;;6.47;;
16159;SDS011;8185;57.818;15.224;2023-10-31T07:02:38;9.23;;;5.80;;
16159;SDS011;8185;57.818;15.224;2023-10-31T07:05:05;8.37;;;5.60;;
16159;SDS011;8185;57.818;15.224;2023-10-31T07:07:33;8.03;;;6.00;;
16159;SDS011;8185;57.818;15.224;2023-10-31T07:10:00;11.30;;;6.63;;
16159;SDS011;8185;57.818;15.224;2023-10-31T07:12:27;8.07;;;6.20;;
16159;SDS011;8185;57.818;15.224;2023-10-31T07:14:56;8.83;;;5.20;;
16159;SDS011;8185;57.818;15.224;2023-10-31T07:17:24;7.23;;;5.07;;
16159;SDS011;8185;57.818;15.224;2023-10-31T07:19:52;6.57;;;5.23;;
16159;SDS011;8185;57.818;15.224;2023-10-31T07:22:19;10.83;;;5.00;;
16159;SDS011;8185;57.818;15.224;2023-10-31T07:24:47;11.10;;;5.07;;
16159;SDS011;8185;57.818;15.224;2023-10-31T07:27:14;8.93;;;5.17;;
16159;SDS011;8185;57.818;15.224;2023-10-31T07:29:42;6.27;;;5.10;;
16159;SDS011;8185;57.818;15.224;2023-10-31T07:32:10;9.20;;;4.40;;
16159;SDS011;8185;57.818;15.224;2023-10-31T07:34:40;5.67;;;4.27;;
16159;SDS011;8185;57.818;15.224;2023-10-31T07:37:09;9.30;;;4.47;;
16159;SDS011;8185;57.818;15.224;2023-10-31T07:39:36;7.97;;;4.80;;
16159;SDS011;8185;57.818;15.224;2023-10-31T07:42:03;7.27;;;4.67;;
16159;SDS011;8185;57.818;15.224;2023-10-31T07:44:31;6.33;;;4.60;;
16159;SDS011;8185;57.818;15.224;2023-10-31T07:46:58;5.27;;;4.07;;
16159;SDS011;8185;57.818;15.224;2023-10-31T07:49:26;5.17;;;4.13;;
16159;SDS011;8185;57.818;15.224;2023-10-31T07:51:54;5.07;;;3.93;;
16159;SDS011;8185;57.818;15.224;2023-10-31T07:54:21;5.90;;;3.93;;
16159;SDS011;8185;57.818;15.224;2023-10-31T07:56:48;6.47;;;4.87;;
16159;SDS011;8185;57.818;15.224;2023-10-31T07:59:15;6.47;;;4.53;;
16159;SDS011;8185;57.818;15.224;2023-10-31T08:01:42;5.33;;;4.20;;
16159;SDS011;8185;57.818;15.224;2023-10-31T08:04:09;6.00;;;4.53;;
16159;SDS011;8185;57.818;15.224;2023-10-31T08:06:38;9.43;;;4.13;;
16159;SDS011;8185;57.818;15.224;2023-10-31T08:09:06;4.43;;;3.70;;
16159;SDS011;8185;57.818;15.224;2023-10-31T08:11:33;4.93;;;3.53;;
16159;SDS011;8185;57.818;15.224;2023-10-31T08:14:00;6.90;;;4.33;;
16159;SDS011;8185;57.818;15.224;2023-10-31T08:16:28;5.13;;;3.70;;
16159;SDS011;8185;57.818;15.224;2023-10-31T08:18:55;5.93;;;3.33;;
16159;SDS011;8185;57.818;15.224;2023-10-31T08:21:22;6.63;;;3.37;;
16159;SDS011;8185;57.818;15.224;2023-10-31T08:23:50;3.37;;;3.07;;
16159;SDS011;8185;57.818;15.224;2023-10-31T08:26:18;4.30;;;3.10;;
16159;SDS011;8185;57.818;15.224;2023-10-31T08:28:45;3.73;;;3.30;;
16159;SDS011;8185;57.818;15.224;2023-10-31T08:31:12;5.43;;;4.90;;
16159;SDS011;8185;57.818;15.224;2023-10-31T08:33:40;2.87;;;2.67;;
16159;SDS011;8185;57.818;15.224;2023-10-31T08:36:07;3.20;;;2.90;;
16159;SDS011;8185;57.818;15.224;2023-10-31T08:38:35;3.60;;;3.30;;
16159;SDS011;8185;57.818;15.224;2023-10-31T08:41:03;5.00;;;2.63;;
16159;SDS011;8185;57.818;15.224;2023-10-31T08:43:31;4.37;;;3.30;;
16159;SDS011;8185;57.818;15.224;2023-10-31T08:45:58;5.03;;;3.03;;
16159;SDS011;8185;57.818;15.224;2023-10-31T08:48:25;6.43;;;3.37;;
16159;SDS011;8185;57.818;15.224;2023-10-31T08:50:53;3.97;;;3.00;;
16159;SDS011;8185;57.818;15.224;2023-10-31T08:53:20;2.70;;;2.50;;
16159;SDS011;8185;57.818;15.224;2023-10-31T08:55:47;2.80;;;2.50;;
16159;SDS011;8185;57.818;15.224;2023-10-31T08:58:16;3.40;;;3.03;;
16159;SDS011;8185;57.818;15.224;2023-10-31T09:00:44;2.80;;;2.60;;
16159;SDS011;8185;57.818;15.224;2023-10-31T09:03:11;2.43;;;2.23;;
16159;SDS011;8185;57.818;15.224;2023-10-31T09:05:38;3.00;;;2.70;;
16159;SDS011;8185;57.818;15.224;2023-10-31T09:08:06;2.40;;;2.20;;
16159;SDS011;8185;57.818;15.224;2023-10-31T09:10:35;2.83;;;2.10;;
16159;SDS011;8185;57.818;15.224;2023-10-31T09:13:04;3.00;;;1.80;;
16159;SDS011;8185;57.818;15.224;2023-10-31T09:15:32;1.20;;;1.00;;
16159;SDS011;8185;57.818;15.224;2023-10-31T09:18:00;1.20;;;0.60;;
16159;SDS011;8185;57.818;15.224;2023-10-31T09:20:27;4.67;;;1.10;;
16159;SDS011;8185;57.818;15.224;2023-10-31T09:22:55;0.43;;;0.40;;
16159;SDS011;8185;57.818;15.224;2023-10-31T09:25:22;3.90;;;0.50;;
16159;SDS011;8185;57.818;15.224;2023-10-31T09:27:49;0.60;;;0.50;;
16159;SDS011;8185;57.818;15.224;2023-10-31T09:30:16;2.10;;;0.60;;
16159;SDS011;8185;57.818;15.224;2023-10-31T09:32:45;0.40;;;0.40;;
16159;SDS011;8185;57.818;15.224;2023-10-31T09:35:12;5.53;;;0.43;;
16159;SDS011;8185;57.818;15.224;2023-10-31T09:37:40;4.40;;;0.50;;
16159;SDS011;8185;57.818;15.224;2023-10-31T09:40:08;2.30;;;0.50;;
16159;SDS011;8185;57.818;15.224;2023-10-31T09:42:36;11.53;;;1.10;;
16159;SDS011;8185;57.818;15.224;2023-10-31T09:45:04;27.37;;;1.40;;
16159;SDS011;8185;57.818;15.224;2023-10-31T09:47:31;6.87;;;0.60;;
16159;SDS011;8185;57.818;15.224;2023-10-31T09:50:00;10.53;;;1.30;;
16159;SDS011;8185;57.818;15.224;2023-10-31T09:52:27;8.67;;;0.90;;
16159;SDS011;8185;57.818;15.224;2023-10-31T09:54:55;17.07;;;1.13;;
16159;SDS011;8185;57.818;15.224;2023-10-31T09:57:23;14.83;;;1.00;;
16159;SDS011;8185;57.818;15.224;2023-10-31T09:59:51;10.30;;;0.80;;
16159;SDS011;8185;57.818;15.224;2023-10-31T10:02:18;2.60;;;0.50;;
16159;SDS011;8185;57.818;15.224;2023-10-31T10:04:46;6.33;;;0.80;;
16159;SDS011;8185;57.818;15.224;2023-10-31T10:07:16;17.33;;;1.00;;
16159;SDS011;8185;57.818;15.224;2023-10-31T10:09:44;3.87;;;0.53;;
16159;SDS011;8185;57.818;15.224;2023-10-31T10:12:13;2.93;;;0.53;;
16159;SDS011;8185;57.818;15.224;2023-10-31T10:14:41;0.80;;;0.40;;
16159;SDS011;8185;57.818;15.224;2023-10-31T10:17:14;0.90;;;0.50;;
16159;SDS011;8185;57.818;15.224;2023-10-31T10:19:42;0.63;;;0.60;;
16159;SDS011;8185;57.818;15.224;2023-10-31T10:22:09;0.70;;;0.50;;
16159;SDS011;8185;57.818;15.224;2023-10-31T10:24:40;0.97;;;0.60;;
16159;SDS011;8185;57.818;15.224;2023-10-31T10:27:08;2.60;;;0.60;;
16159;SDS011;8185;57.818;15.224;2023-10-31T10:29:37;0.60;;;0.60;;
16159;SDS011;8185;57.818;15.224;2023-10-31T10:32:05;0.73;;;0.53;;
16159;SDS011;8185;57.818;15.224;2023-10-31T10:34:34;0.80;;;0.60;;
16159;SDS011;8185;57.818;15.224;2023-10-31T10:37:01;0.50;;;0.50;;
16159;SDS011;8185;57.818;15.224;2023-10-31T10:39:33;2.20;;;0.50;;
16159;SDS011;8185;57.818;15.224;2023-10-31T10:42:03;0.60;;;0.60;;
16159;SDS011;8185;57.818;15.224;2023-10-31T10:44:37;0.60;;;0.60;;
16159;SDS011;8185;57.818;15.224;2023-10-31T10:47:08;2.00;;;0.53;;
16159;SDS011;8185;57.818;15.224;2023-10-31T10:49:36;2.20;;;0.60;;
16159;SDS011;8185;57.818;15.224;2023-10-31T10:52:07;1.73;;;0.60;;
16159;SDS011;8185;57.818;15.224;2023-10-31T10:54:44;2.20;;;0.67;;
16159;SDS011;8185;57.818;15.224;2023-10-31T10:57:19;0.57;;;0.57;;
16159;SDS011;8185;57.818;15.224;2023-10-31T10:59:52;0.70;;;0.60;;
16159;SDS011;8185;57.818;15.224;2023-10-31T11:02:25;1.27;;;0.63;;
16159;SDS011;8185;57.818;15.224;2023-10-31T11:04:53;1.80;;;0.70;;
16159;SDS011;8185;57.818;15.224;2023-10-31T11:07:21;1.90;;;0.70;;
16159;SDS011;8185;57.818;15.224;2023-10-31T11:09:50;1.27;;;0.50;;
16159;SDS011;8185;57.818;15.224;2023-10-31T11:12:18;0.60;;;0.60;;
16159;SDS011;8185;57.818;15.224;2023-10-31T11:14:47;1.80;;;0.60;;
16159;SDS011;8185;57.818;15.224;2023-10-31T11:17:18;1.23;;;0.67;;
16159;SDS011;8185;57.818;15.224;2023-10-31T11:19:51;1.13;;;0.50;;
16159;SDS011;8185;57.818;15.224;2023-10-31T11:22:19;0.77;;;0.57;;
16159;SDS011;8185;57.818;15.224;2023-10-31T11:24:47;0.50;;;0.50;;
16159;SDS011;8185;57.818;15.224;2023-10-31T11:27:16;0.60;;;0.60;;
16159;SDS011;8185;57.818;15.224;2023-10-31T11:29:46;0.60;;;0.60;;
16159;SDS011;8185;57.818;15.224;2023-10-31T11:32:15;0.80;;;0.70;;
16159;SDS011;8185;57.818;15.224;2023-10-31T11:34:42;0.70;;;0.60;;
16159;SDS011;8185;57.818;15.224;2023-10-31T11:37:20;1.73;;;0.50;;
16159;SDS011;8185;57.818;15.224;2023-10-31T11:42:44;1.37;;;0.70;;
16159;SDS011;8185;57.818;15.224;2023-10-31T11:45:25;0.60;;;0.57;;
16159;SDS011;8185;57.818;15.224;2023-10-31T11:47:53;0.73;;;0.70;;
16159;SDS011;8185;57.818;15.224;2023-10-31T11:50:21;0.70;;;0.40;;
16159;SDS011;8185;57.818;15.224;2023-10-31T11:52:58;0.50;;;0.50;;
16159;SDS011;8185;57.818;15.224;2023-10-31T11:55:27;1.20;;;0.50;;
16159;SDS011;8185;57.818;15.224;2023-10-31T11:57:54;0.40;;;0.40;;
16159;SDS011;8185;57.818;15.224;2023-10-31T12:00:22;0.67;;;0.67;;
16159;SDS011;8185;57.818;15.224;2023-10-31T12:03:01;0.60;;;0.60;;
16159;SDS011;8185;57.818;15.224;2023-10-31T12:05:28;0.60;;;0.50;;
16159;SDS011;8185;57.818;15.224;2023-10-31T12:07:56;1.23;;;0.50;;
16159;SDS011;8185;57.818;15.224;2023-10-31T12:10:23;1.13;;;0.60;;
16159;SDS011;8185;57.818;15.224;2023-10-31T12:12:52;2.10;;;0.50;;
16159;SDS011;8185;57.818;15.224;2023-10-31T12:15:19;0.90;;;0.50;;
16159;SDS011;8185;57.818;15.224;2023-10-31T12:17:47;0.47;;;0.47;;
16159;SDS011;8185;57.818;15.224;2023-10-31T12:20:16;0.43;;;0.43;;
16159;SDS011;8185;57.818;15.224;2023-10-31T12:22:43;0.50;;;0.50;;
16159;SDS011;8185;57.818;15.224;2023-10-31T12:25:10;1.07;;;0.40;;
16159;SDS011;8185;57.818;15.224;2023-10-31T12:27:41;0.37;;;0.37;;
16159;SDS011;8185;57.818;15.224;2023-10-31T12:30:11;0.40;;;0.40;;
16159;SDS011;8185;57.818;15.224;2023-10-31T12:32:39;0.40;;;0.40;;
16159;SDS011;8185;57.818;15.224;2023-10-31T12:35:08;0.83;;;0.83;;
16159;SDS011;8185;57.818;15.224;2023-10-31T12:37:43;0.40;;;0.40;;
16159;SDS011;8185;57.818;15.224;2023-10-31T12:40:14;0.40;;;0.40;;
16159;SDS011;8185;57.818;15.224;2023-10-31T12:42:44;0.50;;;0.50;;
16159;SDS011;8185;57.818;15.224;2023-10-31T12:45:12;1.03;;;0.57;;
16159;SDS011;8185;57.818;15.224;2023-10-31T12:47:40;0.40;;;0.40;;
16159;SDS011;8185;57.818;15.224;2023-10-31T12:50:07;0.33;;;0.30;;
16159;SDS011;8185;57.818;15.224;2023-10-31T12:52:47;1.00;;;0.50;;
16159;SDS011;8185;57.818;15.224;2023-10-31T12:55:16;0.40;;;0.40;;
16159;SDS011;8185;57.818;15.224;2023-10-31T12:57:45;0.60;;;0.50;;
16159;SDS011;8185;57.818;15.224;2023-10-31T13:00:13;1.80;;;0.40;;
16159;SDS011;8185;57.818;15.224;2023-10-31T13:02:41;0.50;;;0.30;;
16159;SDS011;8185;57.818;15.224;2023-10-31T13:05:10;0.30;;;0.30;;
16159;SDS011;8185;57.818;15.224;2023-10-31T13:07:38;0.33;;;0.33;;
16159;SDS011;8185;57.818;15.224;2023-10-31T13:10:08;0.30;;;0.30;;
16159;SDS011;8185;57.818;15.224;2023-10-31T13:12:36;2.10;;;0.40;;
16159;SDS011;8185;57.818;15.224;2023-10-31T13:15:03;0.50;;;0.40;;
16159;SDS011;8185;57.818;15.224;2023-10-31T13:17:31;1.70;;;0.50;;
16159;SDS011;8185;57.818;15.224;2023-10-31T13:20:01;0.50;;;0.50;;
16159;SDS011;8185;57.818;15.224;2023-10-31T13:22:29;0.93;;;0.50;;
16159;SDS011;8185;57.818;15.224;2023-10-31T13:24:56;0.40;;;0.40;;
16159;SDS011;8185;57.818;15.224;2023-10-31T13:27:24;0.50;;;0.50;;
16159;SDS011;8185;57.818;15.224;2023-10-31T13:29:52;0.50;;;0.50;;
16159;SDS011;8185;57.818;15.224;2023-10-31T13:32:19;0.70;;;0.50;;
16159;SDS011;8185;57.818;15.224;2023-10-31T13:34:46;0.80;;;0.60;;
16159;SDS011;8185;57.818;15.224;2023-10-31T13:37:14;1.53;;;0.50;;
16159;SDS011;8185;57.818;15.224;2023-10-31T13:39:41;1.90;;;0.50;;
16159;SDS011;8185;57.818;15.224;2023-10-31T13:42:08;0.50;;;0.50;;
16159;SDS011;8185;57.818;15.224;2023-10-31T13:44:37;0.60;;;0.53;;
16159;SDS011;8185;57.818;15.224;2023-10-31T13:47:05;0.50;;;0.50;;
16159;SDS011;8185;57.818;15.224;2023-10-31T13:49:32;0.60;;;0.60;;
16159;SDS011;8185;57.818;15.224;2023-10-31T13:51:59;0.50;;;0.50;;
16159;SDS011;8185;57.818;15.224;2023-10-31T13:54:26;1.53;;;0.57;;
16159;SDS011;8185;57.818;15.224;2023-10-31T13:56:54;0.60;;;0.60;;
16159;SDS011;8185;57.818;15.224;2023-10-31T13:59:21;0.60;;;0.60;;
16159;SDS011;8185;57.818;15.224;2023-10-31T14:01:50;0.70;;;0.70;;
16159;SDS011;8185;57.818;15.224;2023-10-31T14:04:17;0.73;;;0.73;;
16159;SDS011;8185;57.818;15.224;2023-10-31T14:06:45;0.60;;;0.60;;
16159;SDS011;8185;57.818;15.224;2023-10-31T14:09:13;0.50;;;0.50;;
16159;SDS011;8185;57.818;15.224;2023-10-31T14:11:41;0.80;;;0.50;;
16159;SDS011;8185;57.818;15.224;2023-10-31T14:14:09;0.47;;;0.47;;
16159;SDS011;8185;57.818;15.224;2023-10-31T14:16:38;0.50;;;0.50;;
16159;SDS011;8185;57.818;15.224;2023-10-31T14:19:07;0.50;;;0.50;;
16159;SDS011;8185;57.818;15.224;2023-10-31T14:21:34;0.70;;;0.60;;
16159;SDS011;8185;57.818;15.224;2023-10-31T14:24:02;0.40;;;0.40;;
16159;SDS011;8185;57.818;15.224;2023-10-31T14:26:30;0.70;;;0.70;;
16159;SDS011;8185;57.818;15.224;2023-10-31T14:28:58;0.50;;;0.50;;
16159;SDS011;8185;57.818;15.224;2023-10-31T14:31:25;0.80;;;0.80;;
16159;SDS011;8185;57.818;15.224;2023-10-31T14:33:52;0.70;;;0.70;;
16159;SDS011;8185;57.818;15.224;2023-10-31T14:36:21;0.73;;;0.70;;
16159;SDS011;8185;57.818;15.224;2023-10-31T14:38:48;1.10;;;0.60;;
16159;SDS011;8185;57.818;15.224;2023-10-31T14:41:16;0.70;;;0.70;;
16159;SDS011;8185;57.818;15.224;2023-10-31T14:43:43;0.57;;;0.57;;
16159;SDS011;8185;57.818;15.224;2023-10-31T14:46:10;0.70;;;0.70;;
16159;SDS011;8185;57.818;15.224;2023-10-31T14:48:37;0.70;;;0.50;;
16159;SDS011;8185;57.818;15.224;2023-10-31T14:51:04;0.50;;;0.50;;